• Join FlightAware (Why Join?)
  • Login
  • US Flag 
04:35PM EDT


 

Airport Tracker/Info


-or-


 

Live Flight TrackerFlight Track Log ✈ FDX128 ✈ 17-Jul-2013 ✈ KMEM - CYYZ

Flight Track Log - Related Links

Times and Time Zones

All times are in EDT time to prevent confusion due to time zone crossing. See the FDX128 flight status page for this flight to view local times or setup timezone preferences in your user account.

Time Position Orientation Groundspeed Altitude Reporting Facility
EDT Latitude Longitude Course Direction KTS MPH feet Rate Location/Type
04:50AM 35.0667 -90.0000 284° West 196 226 1,000  Level KMEM
04:51AM 35.0833 -90.0833 284° West 280 322 4,300 3,000 Climbing KMEM
04:52AM 35.1667 -90.0667 North 289 333 7,900 2,640 Climbing KMEM
04:55AM 35.3614 -89.9828 19° North 338 389 13,400 2,220 Climbing Memphis Center
04:56AM 35.4697 -89.9339 20° North 393 452 15,600 2,160 Climbing Memphis Center
04:57AM 35.5864 -89.8822 20° North 428 493 17,800 2,100 Climbing Memphis Center
04:58AM 35.6883 -89.8331 21° North 434 499 19,900 2,040 Climbing Memphis Center
04:59AM 35.8089 -89.7581 27° Northeast 429 494 21,900 2,100 Climbing Memphis Center
05:00AM 35.9211 -89.6700 32° Northeast 451 519 24,100 1,860 Climbing Memphis Center
05:01AM 36.0372 -89.5844 31° Northeast 473 544 25,700 1,860 Climbing Memphis Center
05:06AM 36.5600 -88.9330 31° Northeast 465 535 36,000 1,860 Climbing FlightAware
05:06AM 36.6080 -88.8720 46° Northeast 463 533 36,700 720 Climbing FlightAware
05:07AM 36.6740 -88.7880 46° Northeast 465 535 37,000 180 Climbing FlightAware
05:08AM 36.7350 -88.7090 46° Northeast 466 536 37,000  Level FlightAware
05:09AM 36.7990 -88.6280 45° Northeast 468 539 37,000  Level FlightAware
05:09AM 36.8620 -88.5480 45° Northeast 466 536 37,000  Level FlightAware
05:10AM 36.9240 -88.4680 46° Northeast 463 533 37,000  Level FlightAware
05:11AM 37.0120 -88.3550 46° Northeast 462 532 37,000  Level FlightAware
05:12AM 37.0840 -88.2600 46° Northeast 462 532 37,000  Level FlightAware
05:13AM 37.1630 -88.1570 46° Northeast 463 533 37,000  Level FlightAware
05:13AM 37.2250 -88.0770 46° Northeast 468 539 37,000  Level FlightAware
05:14AM 37.2890 -87.9930 46° Northeast 468 539 37,000  Level FlightAware
05:15AM 37.3640 -87.8970 45° Northeast 466 536 37,000  Level FlightAware
05:16AM 37.4830 -87.7400 46° Northeast 471 542 37,000  Level FlightAware
05:17AM 37.5720 -87.6220 46° Northeast 476 548 37,000  Level FlightAware
05:18AM 37.6370 -87.5350 47° Northeast 478 550 37,000  Level FlightAware
05:19AM 37.6990 -87.4530 46° Northeast 478 550 37,000  Level FlightAware
05:19AM 37.7600 -87.3720 46° Northeast 478 550 37,000  Level FlightAware
05:20AM 37.8270 -87.2830 46° Northeast 478 550 37,000  Level FlightAware
05:21AM 37.8940 -87.1930 47° Northeast 478 550 37,000  Level FlightAware
05:21AM 37.9600 -87.1140 43° Northeast 481 554 37,000  Level FlightAware
05:22AM 38.0210 -87.0490 40° Northeast 479 551 37,000  Level FlightAware
05:23AM 38.0870 -86.9780 40° Northeast 479 551 37,000  Level FlightAware
05:23AM 38.1630 -86.8990 39° Northeast 478 550 37,000  Level FlightAware
05:24AM 38.2170 -86.8410 40° Northeast 477 549 37,000  Level FlightAware
05:25AM 38.2900 -86.7630 40° Northeast 476 548 37,000  Level FlightAware
05:25AM 38.3510 -86.6960 41° Northeast 476 548 37,000  Level FlightAware
05:26AM 38.4300 -86.6110 40° Northeast 475 547 37,000  Level FlightAware
05:27AM 38.5040 -86.5310 40° Northeast 474 545 37,000  Level FlightAware
05:27AM 38.5770 -86.4530 40° Northeast 473 544 37,000  Level FlightAware
05:28AM 38.6390 -86.3860 40° Northeast 473 544 37,000  Level FlightAware
05:29AM 38.7080 -86.3100 41° Northeast 471 542 37,000  Level FlightAware
05:29AM 38.7690 -86.2430 41° Northeast 468 539 37,000  Level FlightAware
05:30AM 38.8170 -86.1920 40° Northeast 461 531 37,000  Level FlightAware
05:32AM 38.9750 -86.0190 40° Northeast 460 529 37,000  Level FlightAware
05:32AM 39.0660 -85.9180 41° Northeast 453 521 37,000  Level FlightAware
05:33AM 39.1310 -85.8450 41° Northeast 456 525 37,000  Level FlightAware
05:34AM 39.2030 -85.7670 40° Northeast 459 528 37,000  Level FlightAware
05:35AM 39.2680 -85.6940 41° Northeast 460 529 37,000  Level FlightAware
05:35AM 39.3390 -85.6150 41° Northeast 461 531 37,000  Level FlightAware
05:36AM 39.4030 -85.5440 41° Northeast 464 534 37,000  Level FlightAware
05:37AM 39.4710 -85.4680 41° Northeast 465 535 37,000  Level FlightAware
05:37AM 39.5370 -85.3930 41° Northeast 464 534 37,000  Level FlightAware
05:38AM 39.6000 -85.3230 41° Northeast 465 535 37,000  Level FlightAware
05:39AM 39.6700 -85.2430 41° Northeast 464 534 37,000  Level FlightAware
05:39AM 39.7360 -85.1680 41° Northeast 462 532 37,000  Level FlightAware
05:40AM 39.7930 -85.1040 41° Northeast 461 531 37,000  Level FlightAware
05:41AM 39.8580 -85.0310 41° Northeast 459 528 37,000  Level FlightAware
05:41AM 39.9270 -84.9510 42° Northeast 457 526 37,000  Level FlightAware
05:42AM 39.9920 -84.8770 41° Northeast 454 522 37,000  Level FlightAware
05:43AM 40.0610 -84.7990 41° Northeast 454 522 37,000  Level FlightAware
05:43AM 40.1260 -84.7220 42° Northeast 456 525 37,000  Level FlightAware
05:44AM 40.1890 -84.6510 41° Northeast 456 525 37,000  Level FlightAware
05:46AM 40.3640 -84.4480 41° Northeast 461 531 37,100  Climbing FlightAware
05:47AM 40.4640 -84.3300 42° Northeast 463 533 37,000 -120 Descending FlightAware
05:48AM 40.5200 -84.2670 41° Northeast 461 531 37,000  Level FlightAware
05:48AM 40.6000 -84.1720 42° Northeast 460 529 37,000  Level FlightAware
05:49AM 40.6510 -84.1120 42° Northeast 460 529 37,000  Level FlightAware
05:50AM 40.7200 -84.0300 42° Northeast 458 527 37,000  Level FlightAware
05:50AM 40.7770 -83.9630 42° Northeast 458 527 37,000  Level FlightAware
05:51AM 40.8520 -83.8730 42° Northeast 456 525 37,000  Level FlightAware
05:52AM 40.9160 -83.7990 41° Northeast 455 524 37,000  Level FlightAware
05:52AM 40.9730 -83.7300 42° Northeast 455 524 37,000  Level FlightAware
05:53AM 41.0470 -83.6420 42° Northeast 458 527 37,000  Level FlightAware
05:54AM 41.1030 -83.5730 43° Northeast 462 532 37,000 -180 Level FlightAware
05:54AM 41.1660 -83.4990 41° Northeast 466 536 36,800 -540 Descending FlightAware
05:55AM 41.2380 -83.4120 42° Northeast 469 540 36,300 -780 Descending FlightAware
05:56AM 41.2970 -83.3400 43° Northeast 468 539 35,800 -720 Descending FlightAware
05:56AM 41.3600 -83.2650 42° Northeast 469 540 35,400 -720 Descending FlightAware
05:57AM 41.4260 -83.1840 43° Northeast 472 543 34,900 -720 Descending FlightAware
05:58AM 41.4920 -83.1040 42° Northeast 473 544 34,500 -660 Descending FlightAware
05:58AM 41.5520 -83.0310 42° Northeast 471 542 34,100 -720 Descending FlightAware
05:59AM 41.6260 -82.9400 43° Northeast 471 542 33,500 -780 Descending FlightAware
06:00AM 41.6950 -82.8550 43° Northeast 475 547 33,000 -360 Descending FlightAware
06:01AM 41.7710 -82.7610 43° Northeast 469 540 33,000  Level FlightAware
06:01AM 41.8340 -82.6830 43° Northeast 469 540 33,000  Level FlightAware
06:02AM 41.9020 -82.5980 43° Northeast 469 540 33,000  Level FlightAware
06:03AM 41.9660 -82.5200 42° Northeast 469 540 33,000  Level FlightAware
06:03AM 42.0320 -82.4370 43° Northeast 468 539 33,000  Level FlightAware
06:04AM 42.1010 -82.3510 43° Northeast 471 542 33,000 -240 Level FlightAware
06:05AM 42.1610 -82.2750 43° Northeast 471 542 32,700 -540 Descending FlightAware
06:05AM 42.2340 -82.1830 43° Northeast 469 540 32,300 -600 Descending FlightAware
06:06AM 42.2970 -82.1040 43° Northeast 462 532 31,900 -660 Descending FlightAware
06:07AM 42.3610 -82.0230 43° Northeast 461 531 31,400 -660 Descending FlightAware
06:08AM 42.4260 -81.9400 43° Northeast 458 527 31,000 -540 Descending FlightAware
06:08AM 42.4840 -81.8660 43° Northeast 456 525 30,700 -660 Descending FlightAware
06:09AM 42.5450 -81.7830 45° Northeast 450 518 30,200 -660 Descending FlightAware
06:10AM 42.6020 -81.6980 48° Northeast 448 516 29,800 -600 Descending FlightAware
06:10AM 42.6620 -81.6060 48° Northeast 447 514 29,400 -1,140 Descending FlightAware
06:11AM 42.7350 -81.4960 48° Northeast 439 505 28,000 -1,740 Descending FlightAware
06:12AM 42.7820 -81.4250 48° Northeast 429 494 26,800 -1,440 Descending FlightAware
06:13AM 42.8430 -81.3340 48° Northeast 437 503 26,100 -900 Descending FlightAware
06:13AM 42.9030 -81.2410 49° Northeast 428 493 25,500 -780 Descending FlightAware
06:14AM 42.9560 -81.1600 48° Northeast 429 494 25,000 -660 Descending FlightAware
06:14AM 42.9840 -81.1190 47° Northeast 429 494 24,800 -300 Descending FlightAware
06:15AM 43.0680 -80.9900 48° Northeast 428 493 24,600 -720 Descending FlightAware
06:17AM 43.1550 -80.8290 53° Northeast 417 480 23,000 -1,380 Descending FlightAware
06:18AM 43.2310 -80.6940 52° Northeast 414 476 21,700 -1,800 Descending FlightAware
06:18AM 43.2700 -80.6240 53° Northeast 410 472 20,500 -1,980 Descending FlightAware
06:19AM 43.3260 -80.5240 52° Northeast 401 461 18,800 -2,280 Descending FlightAware
06:20AM 43.3700 -80.4440 53° Northeast 398 458 17,200 -2,160 Descending FlightAware
06:21AM 43.4300 -80.3350 53° Northeast 382 440 15,400 -1,560 Descending FlightAware
06:21AM 43.4730 -80.2590 52° Northeast 371 427 14,800 -900 Descending FlightAware
06:22AM 43.5010 -80.2060 54° Northeast 372 428 14,400 -1,140 Descending FlightAware
06:23AM 43.5460 -80.0560 67° East 347 399 13,100 -1,260 Descending FlightAware
06:24AM 43.5660 -79.9780 70° East 311 358 12,300 -1,140 Descending FlightAware
06:24AM 43.5860 -79.9050 69° East 281 323 11,600 -1,080 Descending FlightAware
06:25AM 43.6040 -79.8660 57° Northeast 266 306 11,100 -780 Descending FlightAware
06:25AM 43.6480 -79.8230 35° Northeast 263 303 10,700 -420 Descending FlightAware
06:26AM 43.6650 -79.8080 33° Northeast 259 298 10,700  Level FlightAware
06:26AM 43.6800 -79.8050 North 259 298 10,700 -600 Level FlightAware
06:27AM 43.7290 -79.8110 355° North 253 291 10,200 -840 Descending FlightAware
06:27AM 43.7550 -79.8150 354° North 249 287 9,800 -960 Descending FlightAware
06:27AM 43.7850 -79.8080 10° North 262 302 9,400 -1,020 Descending FlightAware
06:28AM 43.7970 -79.7900 47° Northeast 266 306 9,100 -1,200 Descending FlightAware
06:28AM 43.8010 -79.7650 77° East 269 310 8,800 -1,500 Descending FlightAware
06:28AM 43.7860 -79.7190 114° Southeast 267 307 8,000 -1,500 Descending FlightAware
06:29AM 43.7650 -79.6770 125° Southeast 264 304 7,300 -1,380 Descending FlightAware
06:29AM 43.7620 -79.6610 105° East 259 298 7,100 -1,380 Descending FlightAware
06:30AM 43.7730 -79.6240 68° East 251 289 6,500 -1,440 Descending FlightAware
06:30AM 43.8000 -79.5940 39° Northeast 244 281 5,800 -720 Descending FlightAware
06:31AM 43.8290 -79.5760 24° Northeast 228 262 5,800 -120 Level FlightAware
06:31AM 43.8580 -79.5500 33° Northeast 250 288 5,700 -600 Descending FlightAware
06:31AM 43.8790 -79.5210 45° Northeast 250 288 5,300 -1,020 Descending FlightAware
06:32AM 43.9040 -79.4880 44° Northeast 242 278 4,800 -780 Descending FlightAware
06:32AM 43.9230 -79.4640 42° Northeast 231 266 4,600 -540 Descending FlightAware
06:33AM 43.9370 -79.4440 46° Northeast 220 253 4,400 -840 Descending FlightAware
06:33AM 43.9550 -79.4190 45° Northeast 212 244 4,000 -1,080 Descending FlightAware
06:33AM 43.9580 -79.4040 74° East 214 246 3,800 -420 Descending FlightAware
06:34AM 43.9510 -79.3790 111° Southeast 218 251 3,800 -180 Level FlightAware
06:34AM 43.9320 -79.3550 138° Southeast 215 247 3,700 -180 Descending FlightAware
06:34AM 43.9180 -79.3480 160° South 210 242 3,700  Level FlightAware
06:35AM 43.8950 -79.3510 185° South 209 241 3,700  Level FlightAware
06:35AM 43.8860 -79.3580 209° Southwest 204 235 3,700  Level FlightAware
06:35AM 43.8660 -79.3830 222° Southwest 187 215 3,700  Level FlightAware
06:36AM 43.8520 -79.4050 229° Southwest 179 206 3,700  Level FlightAware
06:36AM 43.8340 -79.4300 225° Southwest 179 206 3,700  Level FlightAware
06:36AM 43.8290 -79.4390 232° Southwest 179 206 3,700 -180 Level FlightAware
06:37AM 43.8110 -79.4640 225° Southwest 179 206 3,600 -480 Descending FlightAware
06:37AM 43.8060 -79.4720 229° Southwest 179 206 3,400 -1,200 Descending FlightAware
06:38AM 43.7890 -79.4970 227° Southwest 175 201 2,800 -900 Descending FlightAware
06:38AM 43.7730 -79.5200 226° Southwest 174 200 2,500 -840 Descending FlightAware
06:39AM 43.7550 -79.5460 226° Southwest 175 201 2,000 -1,020 Descending FlightAware
06:39AM 43.7410 -79.5660 226° Southwest 179 206 1,600 -1,020 Descending FlightAware
06:40AM 43.7240 -79.5910 227° Southwest 171 197 1,100 -840 Descending FlightAware
06:40AM 43.7090 -79.6130 227° Southwest 157 181 800 -540 Descending FlightAware
06:41AM 43.6900 -79.6420 228° Southwest 159 183 500 -420 Descending FlightAware
06:44AM 43.6820 -79.6590 237° Southwest 8 9 -180 Descending FlightAware
06:44AM 43.6830 -79.6580 36° Northeast 7 8  Level FlightAware
06:45AM 43.6830 -79.6590 270° West  Level FlightAware